sensor_id;sensor_type;location;lat;lon;timestamp;temperature;humidity
24420;DHT22;12599;52.426;13.330;2022-07-10T00:01:25;15.10;99.90
24420;DHT22;12599;52.426;13.330;2022-07-10T00:03:50;15.10;99.90
24420;DHT22;12599;52.426;13.330;2022-07-10T00:06:16;15.10;99.90
24420;DHT22;12599;52.426;13.330;2022-07-10T00:08:42;15.10;99.90
24420;DHT22;12599;52.426;13.330;2022-07-10T00:11:08;15.10;99.90
24420;DHT22;12599;52.426;13.330;2022-07-10T00:13:35;15.20;99.90
24420;DHT22;12599;52.426;13.330;2022-07-10T00:16:01;15.20;99.90
24420;DHT22;12599;52.426;13.330;2022-07-10T00:18:28;15.30;99.90
24420;DHT22;12599;52.426;13.330;2022-07-10T00:20:53;15.30;99.90
24420;DHT22;12599;52.426;13.330;2022-07-10T00:23:19;15.30;99.90
24420;DHT22;12599;52.426;13.330;2022-07-10T00:25:45;15.30;99.90
24420;DHT22;12599;52.426;13.330;2022-07-10T00:28:10;15.30;99.90
24420;DHT22;12599;52.426;13.330;2022-07-10T00:30:37;15.30;99.90
24420;DHT22;12599;52.426;13.330;2022-07-10T00:33:03;15.30;99.90
24420;DHT22;12599;52.426;13.330;2022-07-10T00:35:28;15.20;99.90
24420;DHT22;12599;52.426;13.330;2022-07-10T00:37:54;15.20;99.90
24420;DHT22;12599;52.426;13.330;2022-07-10T00:40:20;15.10;99.90
24420;DHT22;12599;52.426;13.330;2022-07-10T00:42:46;15.20;99.90
24420;DHT22;12599;52.426;13.330;2022-07-10T00:45:11;15.10;99.90
24420;DHT22;12599;52.426;13.330;2022-07-10T00:47:37;15.30;99.90
24420;DHT22;12599;52.426;13.330;2022-07-10T00:50:04;15.30;99.90
24420;DHT22;12599;52.426;13.330;2022-07-10T00:52:30;15.30;99.90
24420;DHT22;12599;52.426;13.330;2022-07-10T00:54:56;15.30;99.90
24420;DHT22;12599;52.426;13.330;2022-07-10T00:57:23;15.20;99.90
24420;DHT22;12599;52.426;13.330;2022-07-10T00:59:49;15.20;99.90
24420;DHT22;12599;52.426;13.330;2022-07-10T01:02:17;15.10;99.90
24420;DHT22;12599;52.426;13.330;2022-07-10T01:04:42;15.10;99.90
24420;DHT22;12599;52.426;13.330;2022-07-10T01:07:08;15.10;99.90
24420;DHT22;12599;52.426;13.330;2022-07-10T01:09:34;15.10;99.90
24420;DHT22;12599;52.426;13.330;2022-07-10T01:12:01;15.00;99.90
24420;DHT22;12599;52.426;13.330;2022-07-10T01:14:31;15.10;99.90
24420;DHT22;12599;52.426;13.330;2022-07-10T01:16:59;15.00;99.90
24420;DHT22;12599;52.426;13.330;2022-07-10T01:19:25;14.90;99.90
24420;DHT22;12599;52.426;13.330;2022-07-10T01:21:50;15.00;99.90
24420;DHT22;12599;52.426;13.330;2022-07-10T01:24:16;14.90;99.90
24420;DHT22;12599;52.426;13.330;2022-07-10T01:26:42;14.90;99.90
24420;DHT22;12599;52.426;13.330;2022-07-10T01:29:09;15.00;99.90
24420;DHT22;12599;52.426;13.330;2022-07-10T01:31:36;14.90;99.90
24420;DHT22;12599;52.426;13.330;2022-07-10T01:34:05;14.90;99.90
24420;DHT22;12599;52.426;13.330;2022-07-10T01:36:31;15.00;99.90
24420;DHT22;12599;52.426;13.330;2022-07-10T01:38:57;14.90;99.90
24420;DHT22;12599;52.426;13.330;2022-07-10T01:41:24;14.90;99.90
24420;DHT22;12599;52.426;13.330;2022-07-10T01:43:50;14.90;99.90
24420;DHT22;12599;52.426;13.330;2022-07-10T01:46:16;14.90;99.90
24420;DHT22;12599;52.426;13.330;2022-07-10T01:48:42;14.90;99.90
24420;DHT22;12599;52.426;13.330;2022-07-10T01:51:09;14.90;99.90
24420;DHT22;12599;52.426;13.330;2022-07-10T01:53:36;14.90;99.90
24420;DHT22;12599;52.426;13.330;2022-07-10T01:56:05;14.70;99.90
24420;DHT22;12599;52.426;13.330;2022-07-10T01:58:31;13.30;99.90
24420;DHT22;12599;52.426;13.330;2022-07-10T02:00:56;14.90;99.90
24420;DHT22;12599;52.426;13.330;2022-07-10T02:03:22;14.90;99.90
24420;DHT22;12599;52.426;13.330;2022-07-10T02:06:06;14.80;99.90
24420;DHT22;12599;52.426;13.330;2022-07-10T02:08:32;14.90;99.90
24420;DHT22;12599;52.426;13.330;2022-07-10T02:10:58;14.70;99.90
24420;DHT22;12599;52.426;13.330;2022-07-10T02:13:24;14.70;99.90
24420;DHT22;12599;52.426;13.330;2022-07-10T02:15:55;14.70;99.90
24420;DHT22;12599;52.426;13.330;2022-07-10T02:18:22;14.80;99.90
24420;DHT22;12599;52.426;13.330;2022-07-10T02:20:48;14.80;99.90
24420;DHT22;12599;52.426;13.330;2022-07-10T02:23:14;14.70;99.90
24420;DHT22;12599;52.426;13.330;2022-07-10T02:25:40;14.70;99.90
24420;DHT22;12599;52.426;13.330;2022-07-10T02:28:05;14.70;99.90
24420;DHT22;12599;52.426;13.330;2022-07-10T02:30:31;14.60;99.90
24420;DHT22;12599;52.426;13.330;2022-07-10T02:32:57;14.60;99.90
24420;DHT22;12599;52.426;13.330;2022-07-10T02:35:23;14.60;99.90
24420;DHT22;12599;52.426;13.330;2022-07-10T02:37:48;14.60;99.90
24420;DHT22;12599;52.426;13.330;2022-07-10T02:40:14;14.60;99.90
24420;DHT22;12599;52.426;13.330;2022-07-10T02:42:40;14.50;99.90
24420;DHT22;12599;52.426;13.330;2022-07-10T02:45:06;14.60;99.90
24420;DHT22;12599;52.426;13.330;2022-07-10T02:47:33;14.50;99.90
24420;DHT22;12599;52.426;13.330;2022-07-10T02:49:58;14.50;99.90
24420;DHT22;12599;52.426;13.330;2022-07-10T02:52:24;14.50;99.90
24420;DHT22;12599;52.426;13.330;2022-07-10T02:54:49;14.50;99.90
24420;DHT22;12599;52.426;13.330;2022-07-10T02:57:16;14.50;99.90
24420;DHT22;12599;52.426;13.330;2022-07-10T02:59:42;14.60;99.90
24420;DHT22;12599;52.426;13.330;2022-07-10T03:02:07;14.60;99.90
24420;DHT22;12599;52.426;13.330;2022-07-10T03:04:33;14.50;99.90
24420;DHT22;12599;52.426;13.330;2022-07-10T03:06:59;14.50;99.90
24420;DHT22;12599;52.426;13.330;2022-07-10T03:09:25;14.30;99.90
24420;DHT22;12599;52.426;13.330;2022-07-10T03:11:51;14.40;99.90
24420;DHT22;12599;52.426;13.330;2022-07-10T03:14:17;14.40;99.90
24420;DHT22;12599;52.426;13.330;2022-07-10T03:16:43;14.40;99.90
24420;DHT22;12599;52.426;13.330;2022-07-10T03:19:08;14.40;99.90
24420;DHT22;12599;52.426;13.330;2022-07-10T03:21:34;14.30;99.90
24420;DHT22;12599;52.426;13.330;2022-07-10T03:24:00;14.30;99.90
24420;DHT22;12599;52.426;13.330;2022-07-10T03:26:25;14.30;99.90
24420;DHT22;12599;52.426;13.330;2022-07-10T03:28:52;14.30;99.90
24420;DHT22;12599;52.426;13.330;2022-07-10T03:31:17;14.30;99.90
24420;DHT22;12599;52.426;13.330;2022-07-10T03:33:43;14.30;99.90
24420;DHT22;12599;52.426;13.330;2022-07-10T03:36:08;14.40;99.90
24420;DHT22;12599;52.426;13.330;2022-07-10T03:38:34;14.40;99.90
24420;DHT22;12599;52.426;13.330;2022-07-10T03:41:00;14.40;99.90
24420;DHT22;12599;52.426;13.330;2022-07-10T03:43:25;14.40;99.90
24420;DHT22;12599;52.426;13.330;2022-07-10T03:45:51;14.40;99.90
24420;DHT22;12599;52.426;13.330;2022-07-10T03:48:17;14.40;99.90
24420;DHT22;12599;52.426;13.330;2022-07-10T03:50:43;14.40;99.90
24420;DHT22;12599;52.426;13.330;2022-07-10T03:53:09;14.40;99.90
24420;DHT22;12599;52.426;13.330;2022-07-10T03:55:34;14.40;99.90
24420;DHT22;12599;52.426;13.330;2022-07-10T03:58:00;14.50;99.90
24420;DHT22;12599;52.426;13.330;2022-07-10T04:00:29;14.50;99.90
24420;DHT22;12599;52.426;13.330;2022-07-10T04:03:02;14.50;99.90
24420;DHT22;12599;52.426;13.330;2022-07-10T04:05:28;14.40;99.90
24420;DHT22;12599;52.426;13.330;2022-07-10T04:07:54;14.40;99.90
24420;DHT22;12599;52.426;13.330;2022-07-10T04:10:22;14.40;99.90
24420;DHT22;12599;52.426;13.330;2022-07-10T04:12:48;14.40;99.90
24420;DHT22;12599;52.426;13.330;2022-07-10T04:15:14;14.30;99.90
24420;DHT22;12599;52.426;13.330;2022-07-10T04:17:40;14.30;99.90
24420;DHT22;12599;52.426;13.330;2022-07-10T04:20:07;14.30;99.90
24420;DHT22;12599;52.426;13.330;2022-07-10T04:22:33;14.20;99.90
24420;DHT22;12599;52.426;13.330;2022-07-10T04:24:59;14.30;99.90
24420;DHT22;12599;52.426;13.330;2022-07-10T04:27:24;14.30;99.90
24420;DHT22;12599;52.426;13.330;2022-07-10T04:29:50;14.30;99.90
24420;DHT22;12599;52.426;13.330;2022-07-10T04:32:16;14.40;99.90
24420;DHT22;12599;52.426;13.330;2022-07-10T04:34:42;14.30;99.90
24420;DHT22;12599;52.426;13.330;2022-07-10T04:37:07;14.20;99.90
24420;DHT22;12599;52.426;13.330;2022-07-10T04:39:34;14.30;99.90
24420;DHT22;12599;52.426;13.330;2022-07-10T04:42:01;14.40;99.90
24420;DHT22;12599;52.426;13.330;2022-07-10T04:44:26;14.30;99.90
24420;DHT22;12599;52.426;13.330;2022-07-10T04:46:52;14.30;99.90
24420;DHT22;12599;52.426;13.330;2022-07-10T04:49:18;14.30;99.90
24420;DHT22;12599;52.426;13.330;2022-07-10T04:51:44;14.30;99.90
24420;DHT22;12599;52.426;13.330;2022-07-10T04:54:09;14.30;99.90
24420;DHT22;12599;52.426;13.330;2022-07-10T04:56:35;14.20;99.90
24420;DHT22;12599;52.426;13.330;2022-07-10T04:59:01;14.30;99.90
24420;DHT22;12599;52.426;13.330;2022-07-10T05:01:26;14.30;99.90
24420;DHT22;12599;52.426;13.330;2022-07-10T05:03:52;14.40;99.90
24420;DHT22;12599;52.426;13.330;2022-07-10T05:06:17;14.50;99.90
24420;DHT22;12599;52.426;13.330;2022-07-10T05:08:43;14.60;99.90
24420;DHT22;12599;52.426;13.330;2022-07-10T05:11:09;14.60;99.90
24420;DHT22;12599;52.426;13.330;2022-07-10T05:13:35;14.80;99.90
24420;DHT22;12599;52.426;13.330;2022-07-10T05:16:00;14.90;99.90
24420;DHT22;12599;52.426;13.330;2022-07-10T05:18:26;14.90;99.90
24420;DHT22;12599;52.426;13.330;2022-07-10T05:20:51;14.90;99.90
24420;DHT22;12599;52.426;13.330;2022-07-10T05:23:17;14.70;99.90
24420;DHT22;12599;52.426;13.330;2022-07-10T05:25:42;14.70;99.90
24420;DHT22;12599;52.426;13.330;2022-07-10T05:28:08;14.60;99.90
24420;DHT22;12599;52.426;13.330;2022-07-10T05:30:34;14.80;99.90
24420;DHT22;12599;52.426;13.330;2022-07-10T05:32:59;14.70;99.90
24420;DHT22;12599;52.426;13.330;2022-07-10T05:35:25;14.60;99.90
24420;DHT22;12599;52.426;13.330;2022-07-10T05:37:52;14.70;99.90
24420;DHT22;12599;52.426;13.330;2022-07-10T05:40:17;14.70;99.90
24420;DHT22;12599;52.426;13.330;2022-07-10T05:42:43;14.80;99.90
24420;DHT22;12599;52.426;13.330;2022-07-10T05:45:10;14.70;99.90
24420;DHT22;12599;52.426;13.330;2022-07-10T05:47:36;14.70;99.90
24420;DHT22;12599;52.426;13.330;2022-07-10T05:50:02;14.80;99.90
24420;DHT22;12599;52.426;13.330;2022-07-10T05:52:28;14.80;99.90
24420;DHT22;12599;52.426;13.330;2022-07-10T05:54:55;14.90;99.90
24420;DHT22;12599;52.426;13.330;2022-07-10T05:57:20;15.00;99.90
24420;DHT22;12599;52.426;13.330;2022-07-10T05:59:46;14.90;99.90
24420;DHT22;12599;52.426;13.330;2022-07-10T06:02:14;15.10;99.90
24420;DHT22;12599;52.426;13.330;2022-07-10T06:04:41;15.00;99.90
24420;DHT22;12599;52.426;13.330;2022-07-10T06:07:07;15.00;99.90
24420;DHT22;12599;52.426;13.330;2022-07-10T06:09:33;15.10;99.90
24420;DHT22;12599;52.426;13.330;2022-07-10T06:11:58;15.00;99.90
24420;DHT22;12599;52.426;13.330;2022-07-10T06:14:24;15.00;99.90
24420;DHT22;12599;52.426;13.330;2022-07-10T06:16:49;15.10;99.90
24420;DHT22;12599;52.426;13.330;2022-07-10T06:19:15;15.20;99.90
24420;DHT22;12599;52.426;13.330;2022-07-10T06:21:42;15.10;99.90
24420;DHT22;12599;52.426;13.330;2022-07-10T06:24:08;15.20;99.90
24420;DHT22;12599;52.426;13.330;2022-07-10T06:26:34;15.30;99.90
24420;DHT22;12599;52.426;13.330;2022-07-10T06:29:00;15.30;99.90
24420;DHT22;12599;52.426;13.330;2022-07-10T06:31:25;15.30;99.90
24420;DHT22;12599;52.426;13.330;2022-07-10T06:33:51;15.30;99.90
24420;DHT22;12599;52.426;13.330;2022-07-10T06:36:17;15.30;99.90
24420;DHT22;12599;52.426;13.330;2022-07-10T06:38:42;15.40;99.90
24420;DHT22;12599;52.426;13.330;2022-07-10T06:41:08;15.40;99.90
24420;DHT22;12599;52.426;13.330;2022-07-10T06:43:34;15.40;99.90
24420;DHT22;12599;52.426;13.330;2022-07-10T06:46:00;15.40;99.90
24420;DHT22;12599;52.426;13.330;2022-07-10T06:48:27;15.40;99.90
24420;DHT22;12599;52.426;13.330;2022-07-10T06:50:52;15.30;99.90
24420;DHT22;12599;52.426;13.330;2022-07-10T06:53:18;15.20;99.90
24420;DHT22;12599;52.426;13.330;2022-07-10T06:55:50;15.30;99.90
24420;DHT22;12599;52.426;13.330;2022-07-10T06:58:15;15.30;99.90
24420;DHT22;12599;52.426;13.330;2022-07-10T07:00:41;15.30;99.90
24420;DHT22;12599;52.426;13.330;2022-07-10T07:03:07;15.50;99.90
24420;DHT22;12599;52.426;13.330;2022-07-10T07:05:32;15.60;99.90
24420;DHT22;12599;52.426;13.330;2022-07-10T07:07:58;15.60;99.90
24420;DHT22;12599;52.426;13.330;2022-07-10T07:10:23;15.60;99.90
24420;DHT22;12599;52.426;13.330;2022-07-10T07:12:49;15.70;99.90
24420;DHT22;12599;52.426;13.330;2022-07-10T07:15:15;15.50;99.90
24420;DHT22;12599;52.426;13.330;2022-07-10T07:17:42;15.60;99.90
24420;DHT22;12599;52.426;13.330;2022-07-10T07:20:23;15.70;99.90
24420;DHT22;12599;52.426;13.330;2022-07-10T07:23:07;15.70;99.90
24420;DHT22;12599;52.426;13.330;2022-07-10T07:25:36;15.70;99.90
24420;DHT22;12599;52.426;13.330;2022-07-10T07:28:03;15.70;99.90
24420;DHT22;12599;52.426;13.330;2022-07-10T07:30:29;15.90;99.90
24420;DHT22;12599;52.426;13.330;2022-07-10T07:32:55;16.20;99.90
24420;DHT22;12599;52.426;13.330;2022-07-10T07:35:20;16.10;99.90
24420;DHT22;12599;52.426;13.330;2022-07-10T07:37:50;16.10;99.90
24420;DHT22;12599;52.426;13.330;2022-07-10T07:40:19;16.00;99.90
24420;DHT22;12599;52.426;13.330;2022-07-10T07:42:46;16.30;99.90
24420;DHT22;12599;52.426;13.330;2022-07-10T07:45:12;16.50;99.90
24420;DHT22;12599;52.426;13.330;2022-07-10T07:47:53;16.70;99.90
24420;DHT22;12599;52.426;13.330;2022-07-10T07:50:31;17.00;99.90
24420;DHT22;12599;52.426;13.330;2022-07-10T07:52:58;17.40;99.90
24420;DHT22;12599;52.426;13.330;2022-07-10T07:55:25;17.30;99.90
24420;DHT22;12599;52.426;13.330;2022-07-10T07:57:52;17.20;99.90
24420;DHT22;12599;52.426;13.330;2022-07-10T08:00:25;17.20;99.90
24420;DHT22;12599;52.426;13.330;2022-07-10T08:02:52;17.00;99.90
24420;DHT22;12599;52.426;13.330;2022-07-10T08:05:19;16.80;99.90
24420;DHT22;12599;52.426;13.330;2022-07-10T08:07:47;16.60;99.90
24420;DHT22;12599;52.426;13.330;2022-07-10T08:10:17;16.30;99.90
24420;DHT22;12599;52.426;13.330;2022-07-10T08:12:44;16.30;99.90
24420;DHT22;12599;52.426;13.330;2022-07-10T08:15:12;16.20;99.90
24420;DHT22;12599;52.426;13.330;2022-07-10T08:17:38;16.30;99.90
24420;DHT22;12599;52.426;13.330;2022-07-10T08:20:06;16.30;99.90
24420;DHT22;12599;52.426;13.330;2022-07-10T08:22:32;16.40;99.90
24420;DHT22;12599;52.426;13.330;2022-07-10T08:24:58;16.50;99.90
24420;DHT22;12599;52.426;13.330;2022-07-10T08:27:24;16.80;99.90
24420;DHT22;12599;52.426;13.330;2022-07-10T08:29:50;17.10;99.90
24420;DHT22;12599;52.426;13.330;2022-07-10T08:32:16;17.00;99.90
24420;DHT22;12599;52.426;13.330;2022-07-10T08:34:41;16.90;99.90
24420;DHT22;12599;52.426;13.330;2022-07-10T08:37:07;16.70;99.90
24420;DHT22;12599;52.426;13.330;2022-07-10T08:39:33;16.50;99.90
24420;DHT22;12599;52.426;13.330;2022-07-10T08:41:59;16.70;99.90
24420;DHT22;12599;52.426;13.330;2022-07-10T08:44:25;16.70;99.90
24420;DHT22;12599;52.426;13.330;2022-07-10T08:46:51;16.70;99.90
24420;DHT22;12599;52.426;13.330;2022-07-10T08:49:17;16.70;99.90
24420;DHT22;12599;52.426;13.330;2022-07-10T08:54:23;16.90;99.90
24420;DHT22;12599;52.426;13.330;2022-07-10T08:56:50;16.80;99.90
24420;DHT22;12599;52.426;13.330;2022-07-10T08:59:17;16.80;99.90
24420;DHT22;12599;52.426;13.330;2022-07-10T09:01:43;17.10;99.90
24420;DHT22;12599;52.426;13.330;2022-07-10T09:04:20;17.10;99.90
24420;DHT22;12599;52.426;13.330;2022-07-10T09:06:47;17.20;99.90
24420;DHT22;12599;52.426;13.330;2022-07-10T09:09:12;17.10;99.90
24420;DHT22;12599;52.426;13.330;2022-07-10T09:11:39;17.20;99.90
24420;DHT22;12599;52.426;13.330;2022-07-10T09:14:09;17.50;99.90
24420;DHT22;12599;52.426;13.330;2022-07-10T09:16:38;17.40;99.90
24420;DHT22;12599;52.426;13.330;2022-07-10T09:19:22;17.60;99.90
24420;DHT22;12599;52.426;13.330;2022-07-10T09:22:09;17.70;99.90
24420;DHT22;12599;52.426;13.330;2022-07-10T09:24:36;17.40;99.90
24420;DHT22;12599;52.426;13.330;2022-07-10T09:27:02;17.60;99.90
24420;DHT22;12599;52.426;13.330;2022-07-10T09:29:32;17.60;99.90
24420;DHT22;12599;52.426;13.330;2022-07-10T09:31:59;17.90;99.90
24420;DHT22;12599;52.426;13.330;2022-07-10T09:37:26;17.90;99.90
24420;DHT22;12599;52.426;13.330;2022-07-10T09:42:34;17.70;99.90
24420;DHT22;12599;52.426;13.330;2022-07-10T09:53:05;17.70;99.90
24420;DHT22;12599;52.426;13.330;2022-07-10T09:55:33;17.70;99.90
24420;DHT22;12599;52.426;13.330;2022-07-10T09:58:09;17.70;99.90
24420;DHT22;12599;52.426;13.330;2022-07-10T10:00:39;17.70;99.90
24420;DHT22;12599;52.426;13.330;2022-07-10T10:03:07;17.80;99.90
24420;DHT22;12599;52.426;13.330;2022-07-10T10:05:42;17.90;99.90
24420;DHT22;12599;52.426;13.330;2022-07-10T10:08:21;18.10;99.90
24420;DHT22;12599;52.426;13.330;2022-07-10T10:10:50;18.40;99.90
24420;DHT22;12599;52.426;13.330;2022-07-10T10:13:19;18.40;99.90
24420;DHT22;12599;52.426;13.330;2022-07-10T10:15:46;18.20;99.90
24420;DHT22;12599;52.426;13.330;2022-07-10T10:18:13;18.10;99.90
24420;DHT22;12599;52.426;13.330;2022-07-10T10:20:40;18.20;99.90
24420;DHT22;12599;52.426;13.330;2022-07-10T10:23:10;18.00;99.90
24420;DHT22;12599;52.426;13.330;2022-07-10T10:25:38;17.90;99.90
24420;DHT22;12599;52.426;13.330;2022-07-10T10:28:05;17.70;99.90
24420;DHT22;12599;52.426;13.330;2022-07-10T10:30:32;17.60;99.90
24420;DHT22;12599;52.426;13.330;2022-07-10T10:32:58;17.90;99.90
24420;DHT22;12599;52.426;13.330;2022-07-10T10:35:54;17.70;99.90
24420;DHT22;12599;52.426;13.330;2022-07-10T10:38:20;17.90;99.90
24420;DHT22;12599;52.426;13.330;2022-07-10T10:40:46;18.00;99.90
24420;DHT22;12599;52.426;13.330;2022-07-10T10:43:23;18.10;99.90
24420;DHT22;12599;52.426;13.330;2022-07-10T10:45:49;18.10;99.90
24420;DHT22;12599;52.426;13.330;2022-07-10T10:48:16;18.20;99.90
24420;DHT22;12599;52.426;13.330;2022-07-10T10:50:49;18.30;99.90
24420;DHT22;12599;52.426;13.330;2022-07-10T10:58:37;18.40;99.90
24420;DHT22;12599;52.426;13.330;2022-07-10T11:01:04;18.40;99.90
24420;DHT22;12599;52.426;13.330;2022-07-10T11:03:31;18.30;99.90
24420;DHT22;12599;52.426;13.330;2022-07-10T11:05:57;18.20;99.90
24420;DHT22;12599;52.426;13.330;2022-07-10T11:08:37;18.40;99.90
24420;DHT22;12599;52.426;13.330;2022-07-10T11:13:59;18.40;99.90
24420;DHT22;12599;52.426;13.330;2022-07-10T11:16:25;18.80;99.90
24420;DHT22;12599;52.426;13.330;2022-07-10T11:18:54;19.20;99.90
24420;DHT22;12599;52.426;13.330;2022-07-10T11:21:24;19.60;99.90
24420;DHT22;12599;52.426;13.330;2022-07-10T11:24:15;19.30;99.90
24420;DHT22;12599;52.426;13.330;2022-07-10T11:26:59;19.20;99.90
24420;DHT22;12599;52.426;13.330;2022-07-10T11:29:27;19.20;99.90
24420;DHT22;12599;52.426;13.330;2022-07-10T11:31:54;19.20;99.90
24420;DHT22;12599;52.426;13.330;2022-07-10T11:34:21;19.20;99.90
24420;DHT22;12599;52.426;13.330;2022-07-10T11:36:48;19.10;99.90
24420;DHT22;12599;52.426;13.330;2022-07-10T11:39:14;18.80;99.90
24420;DHT22;12599;52.426;13.330;2022-07-10T11:41:44;18.60;99.90
24420;DHT22;12599;52.426;13.330;2022-07-10T11:44:17;18.70;99.90
24420;DHT22;12599;52.426;13.330;2022-07-10T11:46:44;18.50;99.90
24420;DHT22;12599;52.426;13.330;2022-07-10T11:49:11;18.20;99.90
24420;DHT22;12599;52.426;13.330;2022-07-10T11:51:40;18.30;99.90
24420;DHT22;12599;52.426;13.330;2022-07-10T11:56:39;18.00;99.90
24420;DHT22;12599;52.426;13.330;2022-07-10T11:59:09;18.20;99.90
24420;DHT22;12599;52.426;13.330;2022-07-10T12:01:45;18.50;99.90
24420;DHT22;12599;52.426;13.330;2022-07-10T12:04:12;18.90;99.90
24420;DHT22;12599;52.426;13.330;2022-07-10T12:06:41;19.20;99.90
24420;DHT22;12599;52.426;13.330;2022-07-10T12:09:12;19.30;99.90
24420;DHT22;12599;52.426;13.330;2022-07-10T12:11:39;19.20;99.90
24420;DHT22;12599;52.426;13.330;2022-07-10T12:14:17;19.30;99.90
24420;DHT22;12599;52.426;13.330;2022-07-10T12:16:45;19.30;99.90
24420;DHT22;12599;52.426;13.330;2022-07-10T12:19:13;19.30;99.90
24420;DHT22;12599;52.426;13.330;2022-07-10T12:21:42;19.40;99.90
24420;DHT22;12599;52.426;13.330;2022-07-10T12:24:08;19.30;99.90
24420;DHT22;12599;52.426;13.330;2022-07-10T12:26:37;19.40;99.90
24420;DHT22;12599;52.426;13.330;2022-07-10T12:29:03;19.60;99.90
24420;DHT22;12599;52.426;13.330;2022-07-10T12:31:33;19.70;99.90
24420;DHT22;12599;52.426;13.330;2022-07-10T12:34:01;19.70;99.90
24420;DHT22;12599;52.426;13.330;2022-07-10T12:36:44;19.70;99.90
24420;DHT22;12599;52.426;13.330;2022-07-10T12:39:12;19.70;99.90
24420;DHT22;12599;52.426;13.330;2022-07-10T12:42:00;19.50;99.90
24420;DHT22;12599;52.426;13.330;2022-07-10T12:47:04;19.40;99.90
24420;DHT22;12599;52.426;13.330;2022-07-10T12:49:51;19.30;99.90
24420;DHT22;12599;52.426;13.330;2022-07-10T12:54:46;20.00;99.90
24420;DHT22;12599;52.426;13.330;2022-07-10T12:57:12;20.20;99.90
24420;DHT22;12599;52.426;13.330;2022-07-10T12:59:37;20.60;99.90
24420;DHT22;12599;52.426;13.330;2022-07-10T13:02:20;20.40;99.50
24420;DHT22;12599;52.426;13.330;2022-07-10T13:04:56;20.20;99.90
24420;DHT22;12599;52.426;13.330;2022-07-10T13:07:32;21.40;99.90
24420;DHT22;12599;52.426;13.330;2022-07-10T13:10:06;20.00;99.90
24420;DHT22;12599;52.426;13.330;2022-07-10T13:12:33;19.90;99.70
24420;DHT22;12599;52.426;13.330;2022-07-10T13:14:58;19.70;99.90
24420;DHT22;12599;52.426;13.330;2022-07-10T13:17:25;19.60;99.90
24420;DHT22;12599;52.426;13.330;2022-07-10T13:19:51;20.00;99.90
24420;DHT22;12599;52.426;13.330;2022-07-10T13:22:17;20.20;99.80
24420;DHT22;12599;52.426;13.330;2022-07-10T13:24:42;20.10;99.40
24420;DHT22;12599;52.426;13.330;2022-07-10T13:27:08;19.80;99.60
24420;DHT22;12599;52.426;13.330;2022-07-10T13:29:34;19.80;99.90
24420;DHT22;12599;52.426;13.330;2022-07-10T13:32:00;20.10;99.90
24420;DHT22;12599;52.426;13.330;2022-07-10T13:34:25;20.10;99.10
24420;DHT22;12599;52.426;13.330;2022-07-10T13:36:51;19.70;99.50
24420;DHT22;12599;52.426;13.330;2022-07-10T13:39:19;19.60;99.60
24420;DHT22;12599;52.426;13.330;2022-07-10T13:41:44;19.60;99.80
24420;DHT22;12599;52.426;13.330;2022-07-10T13:44:10;19.70;99.90
24420;DHT22;12599;52.426;13.330;2022-07-10T13:46:36;19.80;99.70
24420;DHT22;12599;52.426;13.330;2022-07-10T13:49:03;19.80;99.90
24420;DHT22;12599;52.426;13.330;2022-07-10T13:51:29;19.70;98.90
24420;DHT22;12599;52.426;13.330;2022-07-10T13:53:54;19.80;98.90
24420;DHT22;12599;52.426;13.330;2022-07-10T13:56:20;20.20;98.60
24420;DHT22;12599;52.426;13.330;2022-07-10T13:58:46;20.40;98.60
24420;DHT22;12599;52.426;13.330;2022-07-10T14:01:12;20.40;98.20
24420;DHT22;12599;52.426;13.330;2022-07-10T14:03:37;20.40;98.20
24420;DHT22;12599;52.426;13.330;2022-07-10T14:06:03;20.60;98.60
24420;DHT22;12599;52.426;13.330;2022-07-10T14:08:29;20.80;98.20
24420;DHT22;12599;52.426;13.330;2022-07-10T14:10:54;21.10;97.30
24420;DHT22;12599;52.426;13.330;2022-07-10T14:13:20;21.10;97.20
24420;DHT22;12599;52.426;13.330;2022-07-10T14:15:45;20.90;97.10
24420;DHT22;12599;52.426;13.330;2022-07-10T14:18:11;21.10;96.90
24420;DHT22;12599;52.426;13.330;2022-07-10T14:20:37;21.40;97.30
24420;DHT22;12599;52.426;13.330;2022-07-10T14:23:22;21.70;96.40
24420;DHT22;12599;52.426;13.330;2022-07-10T14:25:47;21.80;95.70
24420;DHT22;12599;52.426;13.330;2022-07-10T14:28:13;21.80;96.00
24420;DHT22;12599;52.426;13.330;2022-07-10T14:30:43;21.70;96.00
24420;DHT22;12599;52.426;13.330;2022-07-10T14:33:09;21.70;96.40
24420;DHT22;12599;52.426;13.330;2022-07-10T14:35:34;22.00;95.10
24420;DHT22;12599;52.426;13.330;2022-07-10T14:38:00;22.10;94.90
24420;DHT22;12599;52.426;13.330;2022-07-10T14:40:26;22.10;94.90
24420;DHT22;12599;52.426;13.330;2022-07-10T14:42:52;22.20;94.50
24420;DHT22;12599;52.426;13.330;2022-07-10T14:45:17;22.60;94.00
24420;DHT22;12599;52.426;13.330;2022-07-10T14:47:43;22.90;94.00
24420;DHT22;12599;52.426;13.330;2022-07-10T14:50:09;22.90;93.90
24420;DHT22;12599;52.426;13.330;2022-07-10T14:52:35;23.60;93.40
24420;DHT22;12599;52.426;13.330;2022-07-10T14:55:03;23.70;92.80
24420;DHT22;12599;52.426;13.330;2022-07-10T14:57:28;23.30;92.60
24420;DHT22;12599;52.426;13.330;2022-07-10T14:59:54;23.00;92.80
24420;DHT22;12599;52.426;13.330;2022-07-10T15:02:19;23.10;93.30
24420;DHT22;12599;52.426;13.330;2022-07-10T15:04:45;22.70;93.30
24420;DHT22;12599;52.426;13.330;2022-07-10T15:07:10;22.60;92.90
24420;DHT22;12599;52.426;13.330;2022-07-10T15:09:36;23.20;92.40
24420;DHT22;12599;52.426;13.330;2022-07-10T15:12:02;23.40;91.70
24420;DHT22;12599;52.426;13.330;2022-07-10T15:14:28;23.90;91.10
24420;DHT22;12599;52.426;13.330;2022-07-10T15:16:54;24.50;90.50
24420;DHT22;12599;52.426;13.330;2022-07-10T15:19:20;24.40;90.50
24420;DHT22;12599;52.426;13.330;2022-07-10T15:21:45;24.10;90.40
24420;DHT22;12599;52.426;13.330;2022-07-10T15:24:11;24.10;91.10
24420;DHT22;12599;52.426;13.330;2022-07-10T15:26:37;24.20;91.00
24420;DHT22;12599;52.426;13.330;2022-07-10T15:29:02;24.00;90.90
24420;DHT22;12599;52.426;13.330;2022-07-10T15:31:28;23.60;91.40
24420;DHT22;12599;52.426;13.330;2022-07-10T15:33:54;22.80;91.80
24420;DHT22;12599;52.426;13.330;2022-07-10T15:36:20;22.10;93.10
24420;DHT22;12599;52.426;13.330;2022-07-10T15:38:47;21.40;93.60
24420;DHT22;12599;52.426;13.330;2022-07-10T15:41:12;21.10;94.00
24420;DHT22;12599;52.426;13.330;2022-07-10T15:43:38;20.70;94.20
24420;DHT22;12599;52.426;13.330;2022-07-10T15:46:05;20.60;94.20
24420;DHT22;12599;52.426;13.330;2022-07-10T15:48:33;20.60;94.70